Time;durP1;ratioP1;P1;durP2;ratioP2;P2;SDS_P1;SDS_P2;PMS_P1;PMS_P2;Temp;Humidity;BMP_temperature;BMP_pressure;BME280_temperature;BME280_humidity;BME280_pressure;Samples;Min_cycle;Max_cycle;Signal;HPM_P1;HPM_P2
2021/04/18 00:01:57;;;;;;;4.70;3.20;;;;;;;;;;4995784;28;20050;-59
2021/04/18 00:04:22;;;;;;;5.18;3.00;;;;;;;;;;4995399;28;20580;-59
2021/04/18 00:06:48;;;;;;;4.53;3.08;;;;;;;;;;4996832;28;20035;-59
2021/04/18 00:09:13;;;;;;;4.82;3.13;;;;;;;;;;4996334;28;20097;-60
2021/04/18 00:11:39;;;;;;;6.18;3.20;;;;;;;;;;4996630;28;20548;-60
2021/04/18 00:14:06;;;;;;;4.50;3.08;;;;;;;;;;5001613;28;20571;-60
2021/04/18 00:16:33;;;;;;;4.13;3.20;;;;;;;;;;4995703;28;20045;-59
2021/04/18 00:18:58;;;;;;;4.95;3.25;;;;;;;;;;4997006;28;20034;-59
2021/04/18 00:21:24;;;;;;;4.72;3.33;;;;;;;;;;4985028;28;20038;-59
2021/04/18 00:23:49;;;;;;;4.47;2.95;;;;;;;;;;4995052;28;20038;-60
2021/04/18 00:26:15;;;;;;;3.53;2.70;;;;;;;;;;4998077;28;20409;-60
2021/04/18 00:28:40;;;;;;;3.67;2.88;;;;;;;;;;4998285;28;20050;-59
2021/04/18 00:31:05;;;;;;;4.40;2.90;;;;;;;;;;4998536;28;23187;-60
2021/04/18 00:33:31;;;;;;;5.30;3.10;;;;;;;;;;4998850;28;20296;-60
2021/04/18 00:35:56;;;;;;;4.38;2.90;;;;;;;;;;4998761;28;20030;-59
2021/04/18 00:38:22;;;;;;;5.70;3.35;;;;;;;;;;4997287;28;20027;-63
2021/04/18 00:40:47;;;;;;;3.38;2.50;;;;;;;;;;5015399;28;20372;-60
2021/04/18 00:43:13;;;;;;;4.63;3.00;;;;;;;;;;5000756;28;20031;-60
2021/04/18 00:45:38;;;;;;;5.43;3.15;;;;;;;;;;4998831;28;20184;-59
2021/04/18 00:48:04;;;;;;;5.57;2.90;;;;;;;;;;4999899;28;20030;-60
2021/04/18 00:50:36;;;;;;;4.55;3.05;;;;;;;;;;4989196;28;20522;-60
2021/04/18 00:53:04;;;;;;;3.97;2.90;;;;;;;;;;4999576;28;20042;-59
2021/04/18 00:55:30;;;;;;;5.03;3.40;;;;;;;;;;4999891;28;20042;-60
2021/04/18 00:57:56;;;;;;;4.57;2.95;;;;;;;;;;4999471;28;20030;-60
2021/04/18 01:00:22;;;;;;;4.15;3.10;;;;;;;;;;5000732;28;20512;-60
2021/04/18 01:02:48;;;;;;;4.85;3.20;;;;;;;;;;4996854;28;20077;-60
2021/04/18 01:05:14;;;;;;;5.38;3.80;;;;;;;;;;5003455;28;20187;-60
2021/04/18 01:07:40;;;;;;;5.13;3.13;;;;;;;;;;5005571;28;20035;-60
2021/04/18 01:10:09;;;;;;;4.50;3.10;;;;;;;;;;5007293;28;20038;-61
2021/04/18 01:12:35;;;;;;;3.97;2.70;;;;;;;;;;4987737;28;21069;-60
2021/04/18 01:15:00;;;;;;;5.30;3.47;;;;;;;;;;4999804;28;20150;-59
2021/04/18 01:17:26;;;;;;;4.07;2.90;;;;;;;;;;4996268;28;20409;-60
2021/04/18 01:19:53;;;;;;;4.95;3.08;;;;;;;;;;5005150;28;20081;-60
2021/04/18 01:22:18;;;;;;;5.30;3.13;;;;;;;;;;4997470;28;20136;-59
2021/04/18 01:25:03;;;;;;;6.00;3.40;;;;;;;;;;4984631;28;20031;-59
2021/04/18 01:27:38;;;;;;;4.95;3.22;;;;;;;;;;4998014;28;20038;-60
2021/04/18 01:30:06;;;;;;;5.18;3.33;;;;;;;;;;4988344;28;20042;-58
2021/04/18 01:32:32;;;;;;;5.25;3.35;;;;;;;;;;5004257;28;21318;-61
2021/04/18 01:34:58;;;;;;;4.80;3.25;;;;;;;;;;5003942;28;21656;-59
2021/04/18 01:37:23;;;;;;;4.15;2.85;;;;;;;;;;5003722;28;20035;-60
2021/04/18 01:39:49;;;;;;;5.50;3.28;;;;;;;;;;5001054;28;20031;-60
2021/04/18 01:42:15;;;;;;;5.38;3.35;;;;;;;;;;4998000;28;20387;-60
2021/04/18 01:44:41;;;;;;;4.75;3.00;;;;;;;;;;4996047;28;20485;-60
2021/04/18 01:47:07;;;;;;;4.07;2.83;;;;;;;;;;4997517;28;20077;-58
2021/04/18 01:49:34;;;;;;;4.90;2.97;;;;;;;;;;5014393;28;20421;-60
2021/04/18 01:51:59;;;;;;;4.15;2.80;;;;;;;;;;4999929;28;20041;-60
2021/04/18 01:54:26;;;;;;;3.60;2.60;;;;;;;;;;5012724;28;20043;-60
2021/04/18 01:56:51;;;;;;;3.90;2.78;;;;;;;;;;5004346;28;20037;-59
2021/04/18 01:59:17;;;;;;;4.18;2.85;;;;;;;;;;4998933;28;20033;-60
2021/04/18 02:02:08;;;;;;;4.65;2.85;;;;;;;;;;4997342;28;20081;-59
2021/04/18 02:04:35;;;;;;;4.53;3.15;;;;;;;;;;5003760;28;20031;-62
2021/04/18 02:07:05;;;;;;;5.20;3.00;;;;;;;;;;4978954;28;20462;-59
2021/04/18 02:09:31;;;;;;;4.25;2.90;;;;;;;;;;5010094;28;20086;-59
2021/04/18 02:12:00;;;;;;;4.63;2.90;;;;;;;;;;4997143;28;20116;-61
2021/04/18 02:14:26;;;;;;;4.55;2.70;;;;;;;;;;4996834;28;20037;-60
2021/04/18 02:17:03;;;;;;;5.47;2.88;;;;;;;;;;4981794;28;20031;-60
2021/04/18 02:19:29;;;;;;;5.25;3.13;;;;;;;;;;5003688;28;20058;-59
2021/04/18 02:21:55;;;;;;;5.68;3.10;;;;;;;;;;4987048;28;20047;-61
2021/04/18 02:24:21;;;;;;;3.53;2.70;;;;;;;;;;4998269;28;20031;-60
2021/04/18 02:26:46;;;;;;;5.13;2.83;;;;;;;;;;4996802;28;20045;-59
2021/04/18 02:29:21;;;;;;;4.45;2.97;;;;;;;;;;4983571;28;20041;-59
2021/04/18 02:31:52;;;;;;;4.63;3.08;;;;;;;;;;5012270;28;20041;-60
2021/04/18 02:34:18;;;;;;;4.38;2.67;;;;;;;;;;4996516;28;20060;-60
2021/04/18 02:36:43;;;;;;;4.88;3.03;;;;;;;;;;4996747;28;20027;-60
2021/04/18 02:39:09;;;;;;;3.85;2.83;;;;;;;;;;4998391;28;20034;-60
2021/04/18 02:41:36;;;;;;;5.68;3.30;;;;;;;;;;4995273;28;20046;-60
2021/04/18 02:44:01;;;;;;;5.45;3.35;;;;;;;;;;4997017;28;20038;-60
2021/04/18 02:46:28;;;;;;;4.93;2.90;;;;;;;;;;5003169;28;20029;-60
2021/04/18 02:48:54;;;;;;;3.95;2.78;;;;;;;;;;4995221;28;20034;-59
2021/04/18 02:51:20;;;;;;;4.40;2.80;;;;;;;;;;4997566;28;20064;-58
2021/04/18 02:53:45;;;;;;;5.57;2.80;;;;;;;;;;4997819;28;20026;-59
2021/04/18 02:56:11;;;;;;;4.40;2.80;;;;;;;;;;5012858;28;20043;-60
2021/04/18 02:58:43;;;;;;;4.60;3.22;;;;;;;;;;4996980;28;20041;-59
2021/04/18 03:01:08;;;;;;;4.65;3.30;;;;;;;;;;4997355;28;20053;-59
2021/04/18 03:03:37;;;;;;;5.28;2.97;;;;;;;;;;4996186;28;20125;-59
2021/04/18 03:06:03;;;;;;;5.28;3.00;;;;;;;;;;4995737;28;20031;-59
2021/04/18 03:08:29;;;;;;;5.20;3.08;;;;;;;;;;4998386;28;20038;-59
2021/04/18 03:10:54;;;;;;;4.03;2.80;;;;;;;;;;4997999;28;20030;-60
2021/04/18 03:13:20;;;;;;;4.68;3.00;;;;;;;;;;4998801;28;20031;-59
2021/04/18 03:15:47;;;;;;;5.35;3.00;;;;;;;;;;4995403;28;20036;-59
2021/04/18 03:18:13;;;;;;;4.47;2.92;;;;;;;;;;4995792;28;20145;-60
2021/04/18 03:20:40;;;;;;;4.15;3.00;;;;;;;;;;4994180;28;20034;-60
2021/04/18 03:23:06;;;;;;;5.50;2.92;;;;;;;;;;4986318;28;20532;-60
2021/04/18 03:25:32;;;;;;;4.93;3.17;;;;;;;;;;4994042;28;20041;-60
2021/04/18 03:27:58;;;;;;;4.85;3.22;;;;;;;;;;4994839;28;20035;-60
2021/04/18 03:30:40;;;;;;;4.45;2.55;;;;;;;;;;4997738;28;20121;-59
2021/04/18 03:33:08;;;;;;;5.20;3.15;;;;;;;;;;4994721;28;20031;-61
2021/04/18 03:35:35;;;;;;;5.25;3.00;;;;;;;;;;4985571;28;20118;-59
2021/04/18 03:38:02;;;;;;;6.20;3.05;;;;;;;;;;5013045;28;20758;-59
2021/04/18 03:40:29;;;;;;;5.00;3.50;;;;;;;;;;4978351;28;20066;-59
2021/04/18 03:42:56;;;;;;;4.78;3.10;;;;;;;;;;4995348;28;20069;-60
2021/04/18 03:45:23;;;;;;;4.10;2.70;;;;;;;;;;5001863;28;20093;-59
2021/04/18 03:47:53;;;;;;;4.93;2.92;;;;;;;;;;4994536;28;20042;-60
2021/04/18 03:50:20;;;;;;;4.53;3.10;;;;;;;;;;4979902;28;20038;-60
2021/04/18 03:52:58;;;;;;;5.22;3.20;;;;;;;;;;5010953;28;20125;-60
2021/04/18 03:55:27;;;;;;;3.88;2.65;;;;;;;;;;4997446;28;20521;-59
2021/04/18 03:57:54;;;;;;;4.57;2.67;;;;;;;;;;4987921;28;20035;-60
2021/04/18 04:00:22;;;;;;;5.53;3.33;;;;;;;;;;4993166;28;20066;-60
2021/04/18 04:02:56;;;;;;;4.85;3.20;;;;;;;;;;4983189;28;20590;-60
2021/04/18 04:05:22;;;;;;;4.30;2.78;;;;;;;;;;5012382;28;20061;-59
2021/04/18 04:07:48;;;;;;;4.93;3.10;;;;;;;;;;5012196;28;20123;-59
2021/04/18 04:10:14;;;;;;;4.32;2.92;;;;;;;;;;4979032;28;20639;-60
2021/04/18 04:12:42;;;;;;;4.20;2.90;;;;;;;;;;4962201;28;20031;-60
2021/04/18 04:15:09;;;;;;;5.18;3.05;;;;;;;;;;5004719;28;20052;-59
2021/04/18 04:17:35;;;;;;;5.88;3.13;;;;;;;;;;4995071;28;20074;-60
2021/04/18 04:20:17;;;;;;;4.43;2.80;;;;;;;;;;4996719;28;20119;-60
2021/04/18 04:22:58;;;;;;;4.20;2.67;;;;;;;;;;4980691;28;20047;-60
2021/04/18 04:25:23;;;;;;;4.70;3.08;;;;;;;;;;4994498;28;20404;-59
2021/04/18 04:27:49;;;;;;;4.03;2.60;;;;;;;;;;4996928;28;20114;-59
2021/04/18 04:30:14;;;;;;;3.78;2.90;;;;;;;;;;4993678;28;20393;-59
2021/04/18 04:32:40;;;;;;;5.40;2.58;;;;;;;;;;4994696;28;20081;-59
2021/04/18 04:35:06;;;;;;;4.30;2.75;;;;;;;;;;4995042;28;20464;-60
2021/04/18 04:37:31;;;;;;;3.45;2.58;;;;;;;;;;4996777;28;20085;-60
2021/04/18 04:39:57;;;;;;;3.33;2.50;;;;;;;;;;4996032;28;20583;-60
2021/04/18 04:42:22;;;;;;;3.90;2.70;;;;;;;;;;4993884;28;29704;-60
2021/04/18 04:44:48;;;;;;;4.93;3.03;;;;;;;;;;4995028;28;20106;-59
2021/04/18 04:47:13;;;;;;;4.82;2.97;;;;;;;;;;4984202;28;20042;-59
2021/04/18 04:49:39;;;;;;;5.43;3.00;;;;;;;;;;4993172;28;20045;-59
2021/04/18 04:52:07;;;;;;;4.90;2.78;;;;;;;;;;4977499;28;20437;-60
2021/04/18 04:54:32;;;;;;;4.35;2.55;;;;;;;;;;4995913;28;20085;-58
2021/04/18 04:56:58;;;;;;;4.22;2.60;;;;;;;;;;4997325;28;20102;-59
2021/04/18 04:59:23;;;;;;;3.90;2.63;;;;;;;;;;4996318;28;20046;-59
2021/04/18 05:01:49;;;;;;;3.90;2.70;;;;;;;;;;4994331;28;20047;-60
2021/04/18 05:04:14;;;;;;;4.10;2.78;;;;;;;;;;4996486;28;20026;-59
2021/04/18 05:06:40;;;;;;;3.42;2.50;;;;;;;;;;4993345;28;20060;-59
2021/04/18 05:09:05;;;;;;;4.05;2.53;;;;;;;;;;4994351;28;20166;-59
2021/04/18 05:11:31;;;;;;;4.20;2.85;;;;;;;;;;5003992;28;20026;-60
2021/04/18 05:13:56;;;;;;;4.38;2.88;;;;;;;;;;5000333;28;20031;-60
2021/04/18 05:16:22;;;;;;;4.45;2.95;;;;;;;;;;4999354;28;20022;-60
2021/04/18 05:18:47;;;;;;;4.60;2.80;;;;;;;;;;5000691;28;20042;-60
2021/04/18 05:21:13;;;;;;;3.67;2.50;;;;;;;;;;4998162;28;20053;-58
2021/04/18 05:23:38;;;;;;;4.15;2.50;;;;;;;;;;4999003;28;20042;-60
2021/04/18 05:26:04;;;;;;;4.05;2.53;;;;;;;;;;4998340;28;20432;-59
2021/04/18 05:28:29;;;;;;;4.18;2.70;;;;;;;;;;4998477;28;20046;-58
2021/04/18 05:30:56;;;;;;;4.68;2.70;;;;;;;;;;4999825;28;20085;-60
2021/04/18 05:33:22;;;;;;;4.50;2.78;;;;;;;;;;4997415;28;20684;-60
2021/04/18 05:35:47;;;;;;;4.03;2.80;;;;;;;;;;4998288;28;20065;-59
2021/04/18 05:38:13;;;;;;;4.30;2.47;;;;;;;;;;5002376;28;20112;-60
2021/04/18 05:40:38;;;;;;;3.97;2.58;;;;;;;;;;4997532;28;20085;-58
2021/04/18 05:43:04;;;;;;;3.97;2.55;;;;;;;;;;4997394;28;20392;-60
2021/04/18 05:45:29;;;;;;;3.72;2.70;;;;;;;;;;4998306;28;20031;-60
2021/04/18 05:47:56;;;;;;;4.00;2.60;;;;;;;;;;4995618;28;20034;-60
2021/04/18 05:50:22;;;;;;;3.72;2.58;;;;;;;;;;4997992;28;20031;-59
2021/04/18 05:52:47;;;;;;;3.80;2.65;;;;;;;;;;4998090;28;20076;-60
2021/04/18 05:55:13;;;;;;;4.68;3.03;;;;;;;;;;4995308;28;20023;-59
2021/04/18 05:57:38;;;;;;;3.67;2.33;;;;;;;;;;4995539;28;20034;-59
2021/04/18 06:00:05;;;;;;;4.28;2.50;;;;;;;;;;4998051;28;20077;-59
2021/04/18 06:02:37;;;;;;;4.10;2.60;;;;;;;;;;4994640;28;20042;-65
2021/04/18 06:05:03;;;;;;;5.15;2.63;;;;;;;;;;4996598;28;20479;-59
2021/04/18 06:07:29;;;;;;;3.50;2.38;;;;;;;;;;4994201;28;20035;-59
2021/04/18 06:09:54;;;;;;;4.32;2.50;;;;;;;;;;4997833;28;20038;-59
2021/04/18 06:12:20;;;;;;;4.10;2.78;;;;;;;;;;4996585;28;20038;-59
2021/04/18 06:14:45;;;;;;;4.22;2.60;;;;;;;;;;4998105;28;20034;-59
2021/04/18 06:17:11;;;;;;;3.92;2.60;;;;;;;;;;4997140;28;20078;-60
2021/04/18 06:19:36;;;;;;;5.97;2.72;;;;;;;;;;4997695;28;20721;-60
2021/04/18 06:22:02;;;;;;;3.15;2.42;;;;;;;;;;4997113;28;20048;-59
2021/04/18 06:24:27;;;;;;;4.78;2.72;;;;;;;;;;4995637;28;20038;-58
2021/04/18 06:26:53;;;;;;;3.58;2.40;;;;;;;;;;4995158;28;20460;-59
2021/04/18 06:29:18;;;;;;;3.50;2.38;;;;;;;;;;4986407;28;20090;-59
2021/04/18 06:31:44;;;;;;;4.93;2.80;;;;;;;;;;5003043;28;20030;-59
2021/04/18 06:34:10;;;;;;;4.30;2.72;;;;;;;;;;4997089;28;20039;-60
2021/04/18 06:36:35;;;;;;;4.55;2.78;;;;;;;;;;4996604;28;20027;-59
2021/04/18 06:39:01;;;;;;;3.95;2.78;;;;;;;;;;4998300;28;20100;-60
2021/04/18 06:41:26;;;;;;;3.75;2.60;;;;;;;;;;4997664;28;20050;-59
2021/04/18 06:43:52;;;;;;;3.22;2.45;;;;;;;;;;5002681;28;20026;-59
2021/04/18 06:46:19;;;;;;;5.15;2.97;;;;;;;;;;4993967;28;20062;-60
2021/04/18 06:48:48;;;;;;;3.88;2.80;;;;;;;;;;4996650;28;20493;-59
2021/04/18 06:51:17;;;;;;;4.85;2.92;;;;;;;;;;4994189;28;20493;-59
2021/04/18 06:53:43;;;;;;;6.18;2.90;;;;;;;;;;4994917;28;20049;-60
2021/04/18 06:56:08;;;;;;;4.78;2.78;;;;;;;;;;4997091;28;20111;-59
2021/04/18 06:58:34;;;;;;;4.85;2.75;;;;;;;;;;5002818;28;20035;-59
2021/04/18 07:00:59;;;;;;;5.03;3.00;;;;;;;;;;4998632;28;20556;-60
2021/04/18 07:03:25;;;;;;;4.28;2.63;;;;;;;;;;4996620;28;20039;-60
2021/04/18 07:05:51;;;;;;;3.50;2.70;;;;;;;;;;5001512;28;20042;-59
2021/04/18 07:08:26;;;;;;;4.10;2.45;;;;;;;;;;4995681;28;20789;-59
2021/04/18 07:11:03;;;;;;;4.63;2.88;;;;;;;;;;5002150;28;20086;-59
2021/04/18 07:13:28;;;;;;;5.72;3.15;;;;;;;;;;4992959;28;20061;-60
2021/04/18 07:15:53;;;;;;;3.72;2.58;;;;;;;;;;4996722;28;20037;-60
2021/04/18 07:18:40;;;;;;;3.78;2.70;;;;;;;;;;4979518;28;20039;-60
2021/04/18 07:21:06;;;;;;;3.72;2.45;;;;;;;;;;4998230;28;20137;-60
2021/04/18 07:23:34;;;;;;;3.80;2.50;;;;;;;;;;4994587;28;20038;-60
2021/04/18 07:26:23;;;;;;;4.25;2.60;;;;;;;;;;4996249;28;20046;-60
2021/04/18 07:28:49;;;;;;;3.38;2.42;;;;;;;;;;4996005;28;20039;-59
2021/04/18 07:31:33;;;;;;;2.85;2.35;;;;;;;;;;4985662;28;20553;-59
2021/04/18 07:34:09;;;;;;;4.53;2.75;;;;;;;;;;4996415;28;20074;-59
2021/04/18 07:36:35;;;;;;;4.22;2.60;;;;;;;;;;4997820;28;20058;-59
2021/04/18 07:39:02;;;;;;;5.38;2.70;;;;;;;;;;4996904;28;20122;-60
2021/04/18 07:41:28;;;;;;;5.70;2.72;;;;;;;;;;4996943;28;20785;-60
2021/04/18 07:43:53;;;;;;;5.13;2.80;;;;;;;;;;4996302;28;20035;-59
2021/04/18 07:46:19;;;;;;;4.60;2.55;;;;;;;;;;5001236;28;20417;-59
2021/04/18 07:48:45;;;;;;;6.40;3.20;;;;;;;;;;4993682;28;20065;-58
2021/04/18 07:51:11;;;;;;;4.57;2.63;;;;;;;;;;4994893;28;20109;-60
2021/04/18 07:53:40;;;;;;;4.50;2.67;;;;;;;;;;4995229;28;20572;-59
2021/04/18 07:56:10;;;;;;;4.25;2.60;;;;;;;;;;4995815;28;20030;-60
2021/04/18 07:58:39;;;;;;;4.38;2.75;;;;;;;;;;5000636;28;20031;-60
2021/04/18 08:01:05;;;;;;;4.07;2.50;;;;;;;;;;4993961;28;20069;-59
2021/04/18 08:03:31;;;;;;;4.50;2.42;;;;;;;;;;4996219;28;20540;-60
2021/04/18 08:05:56;;;;;;;4.35;2.70;;;;;;;;;;4993010;28;20039;-58
2021/04/18 08:08:22;;;;;;;4.50;2.70;;;;;;;;;;4994584;28;20554;-58
2021/04/18 08:10:48;;;;;;;4.03;2.78;;;;;;;;;;4994703;28;20041;-59
2021/04/18 08:13:24;;;;;;;4.15;2.72;;;;;;;;;;4994911;28;20725;-59
2021/04/18 08:15:52;;;;;;;4.05;2.80;;;;;;;;;;4985203;28;20030;-60
2021/04/18 08:18:20;;;;;;;4.13;2.88;;;;;;;;;;4995376;28;20077;-59
2021/04/18 08:20:45;;;;;;;4.38;2.88;;;;;;;;;;4993669;28;20549;-59
2021/04/18 08:23:16;;;;;;;3.85;2.78;;;;;;;;;;4995224;28;20037;-59
2021/04/18 08:26:12;;;;;;;4.95;2.85;;;;;;;;;;4996782;28;20065;-59
2021/04/18 08:28:58;;;;;;;5.00;3.03;;;;;;;;;;4996665;28;20129;-60
2021/04/18 08:31:30;;;;;;;4.80;2.90;;;;;;;;;;4994811;28;20031;-63
2021/04/18 08:34:00;;;;;;;4.90;3.00;;;;;;;;;;4994530;28;20089;-57
2021/04/18 08:36:31;;;;;;;4.60;3.08;;;;;;;;;;4993492;28;20041;-58
2021/04/18 08:38:59;;;;;;;4.45;3.03;;;;;;;;;;4993671;28;20082;-58
2021/04/18 08:41:37;;;;;;;4.13;2.80;;;;;;;;;;4995183;28;20584;-57
2021/04/18 08:44:21;;;;;;;5.35;3.00;;;;;;;;;;4993231;28;20039;-58
2021/04/18 08:46:49;;;;;;;7.15;3.70;;;;;;;;;;4996564;28;20041;-60
2021/04/18 08:49:34;;;;;;;4.32;2.88;;;;;;;;;;4986020;28;20101;-67
2021/04/18 08:52:01;;;;;;;4.80;3.10;;;;;;;;;;4999310;28;20035;-58
2021/04/18 08:54:32;;;;;;;4.13;2.70;;;;;;;;;;4997365;28;20035;-58
2021/04/18 08:56:59;;;;;;;4.65;3.00;;;;;;;;;;5002628;28;20129;-58
2021/04/18 08:59:24;;;;;;;5.07;3.10;;;;;;;;;;4998033;28;20049;-59
2021/04/18 09:02:10;;;;;;;4.43;2.95;;;;;;;;;;5011811;28;20109;-57
2021/04/18 09:04:37;;;;;;;4.28;2.78;;;;;;;;;;4998215;28;20520;-59
2021/04/18 09:07:03;;;;;;;4.25;2.97;;;;;;;;;;5000851;28;20030;-59
2021/04/18 09:09:30;;;;;;;4.30;2.95;;;;;;;;;;4979167;28;20026;-58
2021/04/18 09:11:57;;;;;;;4.45;2.90;;;;;;;;;;5000061;28;20080;-57
2021/04/18 09:14:30;;;;;;;4.97;2.78;;;;;;;;;;4997480;28;20038;-57
2021/04/18 09:17:16;;;;;;;4.13;2.97;;;;;;;;;;4997475;28;20038;-57
2021/04/18 09:19:45;;;;;;;4.85;3.08;;;;;;;;;;4998472;28;20034;-59
2021/04/18 09:22:18;;;;;;;4.90;3.03;;;;;;;;;;4999736;28;20085;-59
2021/04/18 09:25:09;;;;;;;3.88;2.53;;;;;;;;;;4998775;28;20509;-59
2021/04/18 09:27:54;;;;;;;3.80;2.60;;;;;;;;;;4998312;28;20030;-60
2021/04/18 09:30:24;;;;;;;4.55;3.00;;;;;;;;;;4997451;28;20046;-58
2021/04/18 09:32:55;;;;;;;5.28;2.90;;;;;;;;;;5001839;28;20130;-59
2021/04/18 09:35:22;;;;;;;4.67;3.00;;;;;;;;;;4998715;28;20073;-59
2021/04/18 09:38:04;;;;;;;3.80;2.50;;;;;;;;;;4996936;28;20337;-59
2021/04/18 09:40:31;;;;;;;4.05;2.75;;;;;;;;;;4995967;28;20049;-59
2021/04/18 09:42:56;;;;;;;5.30;3.00;;;;;;;;;;4998643;28;20041;-58
2021/04/18 09:45:23;;;;;;;5.68;2.85;;;;;;;;;;4999728;28;20606;-57
2021/04/18 09:47:52;;;;;;;3.63;2.53;;;;;;;;;;4996668;28;20114;-58
2021/04/18 09:50:33;;;;;;;5.28;3.13;;;;;;;;;;4998377;28;20073;-59
2021/04/18 09:53:13;;;;;;;4.30;2.70;;;;;;;;;;4981303;28;20035;-60
2021/04/18 09:56:03;;;;;;;3.88;2.47;;;;;;;;;;4998380;28;20155;-59
2021/04/18 09:58:41;;;;;;;4.93;2.72;;;;;;;;;;4995637;28;20904;-60
2021/04/18 10:01:26;;;;;;;4.57;2.80;;;;;;;;;;4998945;28;20049;-58
2021/04/18 10:03:52;;;;;;;4.18;3.05;;;;;;;;;;4997131;28;20117;-59
2021/04/18 10:06:18;;;;;;;5.22;3.13;;;;;;;;;;4996796;28;20031;-58
2021/04/18 10:08:56;;;;;;;3.90;3.08;;;;;;;;;;5006092;28;20034;-58
2021/04/18 10:11:22;;;;;;;3.95;2.90;;;;;;;;;;4981247;28;20357;-59
2021/04/18 10:13:54;;;;;;;4.50;3.00;;;;;;;;;;4987748;28;20084;-58
2021/04/18 10:16:41;;;;;;;4.97;3.22;;;;;;;;;;4998150;28;20041;-59
2021/04/18 10:19:20;;;;;;;4.45;3.00;;;;;;;;;;4995205;28;20046;-59
2021/04/18 10:22:02;;;;;;;4.53;2.65;;;;;;;;;;4998995;28;20042;-59
2021/04/18 10:24:41;;;;;;;4.60;3.10;;;;;;;;;;4997945;28;20042;-59
2021/04/18 10:27:08;;;;;;;4.90;3.13;;;;;;;;;;5003431;28;20034;-57
2021/04/18 10:29:34;;;;;;;5.18;3.30;;;;;;;;;;4995900;28;20022;-59
2021/04/18 10:31:59;;;;;;;6.47;3.10;;;;;;;;;;5002904;28;20046;-58
2021/04/18 10:34:26;;;;;;;4.97;3.20;;;;;;;;;;4997833;28;20046;-59
2021/04/18 10:36:52;;;;;;;5.35;3.40;;;;;;;;;;4996931;28;20046;-59
2021/04/18 10:39:21;;;;;;;4.38;3.15;;;;;;;;;;4982682;28;20049;-59
2021/04/18 10:41:47;;;;;;;5.15;3.38;;;;;;;;;;4997642;28;20089;-59
2021/04/18 10:44:15;;;;;;;5.35;3.08;;;;;;;;;;5003382;28;20118;-58
2021/04/18 10:47:02;;;;;;;5.13;3.30;;;;;;;;;;5002682;28;20041;-58
2021/04/18 10:49:27;;;;;;;5.28;3.40;;;;;;;;;;4997799;28;20057;-59
2021/04/18 10:51:53;;;;;;;6.30;3.30;;;;;;;;;;4996054;28;20557;-59
2021/04/18 10:54:20;;;;;;;5.60;3.67;;;;;;;;;;4995180;28;20050;-57
2021/04/18 10:56:48;;;;;;;5.63;3.40;;;;;;;;;;5002505;28;20046;-59
2021/04/18 10:59:14;;;;;;;5.25;3.40;;;;;;;;;;4995929;28;20042;-60
2021/04/18 11:01:40;;;;;;;4.10;2.88;;;;;;;;;;4995461;28;20058;-59
2021/04/18 11:04:05;;;;;;;7.25;3.40;;;;;;;;;;4993056;28;20042;-59
2021/04/18 11:06:31;;;;;;;5.07;3.38;;;;;;;;;;5002562;28;20050;-60
2021/04/18 11:08:56;;;;;;;5.32;3.10;;;;;;;;;;5001399;28;20741;-60
2021/04/18 11:11:24;;;;;;;4.68;3.20;;;;;;;;;;4998288;28;20036;-60
2021/04/18 11:13:51;;;;;;;5.65;3.28;;;;;;;;;;4998602;28;20603;-60
2021/04/18 11:16:16;;;;;;;4.22;2.88;;;;;;;;;;4996334;28;20082;-60
2021/04/18 11:18:43;;;;;;;5.55;3.40;;;;;;;;;;4998618;28;20049;-60
2021/04/18 11:21:09;;;;;;;6.68;3.17;;;;;;;;;;4999164;28;20046;-58
2021/04/18 11:23:35;;;;;;;5.13;3.22;;;;;;;;;;4999240;28;20075;-59
2021/04/18 11:26:00;;;;;;;5.65;3.45;;;;;;;;;;4996672;28;20038;-59
2021/04/18 11:28:26;;;;;;;5.05;3.13;;;;;;;;;;4995967;28;20113;-59
2021/04/18 11:30:51;;;;;;;5.88;3.33;;;;;;;;;;4996924;28;20038;-60
2021/04/18 11:33:18;;;;;;;4.60;3.10;;;;;;;;;;4996618;28;20037;-60
2021/04/18 11:35:44;;;;;;;6.03;3.60;;;;;;;;;;4996629;28;20358;-61
2021/04/18 11:38:09;;;;;;;4.30;2.90;;;;;;;;;;4994076;28;20057;-60
2021/04/18 11:40:35;;;;;;;5.93;3.42;;;;;;;;;;4995835;28;20233;-61
2021/04/18 11:43:02;;;;;;;5.25;3.55;;;;;;;;;;4996308;28;20042;-62
2021/04/18 11:45:29;;;;;;;5.15;3.20;;;;;;;;;;4997675;28;20023;-60
2021/04/18 11:47:54;;;;;;;4.63;3.35;;;;;;;;;;4996111;28;20413;-59
2021/04/18 11:50:21;;;;;;;5.57;3.40;;;;;;;;;;4986208;28;20030;-59
2021/04/18 11:52:48;;;;;;;4.97;3.25;;;;;;;;;;4965075;28;20031;-58
2021/04/18 11:55:15;;;;;;;5.32;3.30;;;;;;;;;;4998329;28;20118;-59
2021/04/18 11:57:41;;;;;;;5.43;3.22;;;;;;;;;;5001102;28;20038;-59
2021/04/18 12:00:07;;;;;;;3.88;2.50;;;;;;;;;;4985419;28;20409;-60
2021/04/18 12:02:33;;;;;;;4.93;2.67;;;;;;;;;;5001155;28;20054;-60
2021/04/18 12:04:58;;;;;;;3.97;2.97;;;;;;;;;;4995648;28;20042;-60
2021/04/18 12:07:24;;;;;;;4.45;3.03;;;;;;;;;;4996071;28;20643;-59
2021/04/18 12:09:49;;;;;;;4.13;2.90;;;;;;;;;;4996970;28;20045;-59
2021/04/18 12:12:15;;;;;;;5.20;2.88;;;;;;;;;;4995819;28;20038;-59
2021/04/18 12:14:41;;;;;;;4.38;2.85;;;;;;;;;;4995565;28;20041;-60
2021/04/18 12:17:06;;;;;;;4.10;2.58;;;;;;;;;;4998316;28;20054;-59
2021/04/18 12:19:32;;;;;;;5.45;3.03;;;;;;;;;;4997420;28;20400;-59
2021/04/18 12:21:59;;;;;;;5.72;3.20;;;;;;;;;;4999251;28;20043;-60
2021/04/18 12:24:24;;;;;;;4.45;2.80;;;;;;;;;;4999152;28;20114;-58
2021/04/18 12:26:50;;;;;;;5.78;2.72;;;;;;;;;;5000586;28;20081;-60
2021/04/18 12:29:16;;;;;;;4.30;2.90;;;;;;;;;;4997466;28;20070;-60
2021/04/18 12:31:41;;;;;;;5.20;3.10;;;;;;;;;;4997903;28;20118;-59
2021/04/18 12:34:08;;;;;;;4.43;2.85;;;;;;;;;;4996380;28;20034;-60
2021/04/18 12:36:33;;;;;;;3.90;2.83;;;;;;;;;;4988941;28;20026;-60
2021/04/18 12:38:59;;;;;;;4.57;3.28;;;;;;;;;;5001874;28;20031;-58
2021/04/18 12:41:28;;;;;;;5.25;3.22;;;;;;;;;;4997555;28;20045;-60
2021/04/18 12:43:53;;;;;;;5.88;3.42;;;;;;;;;;5004973;28;20473;-64
2021/04/18 12:46:21;;;;;;;5.05;3.30;;;;;;;;;;4999464;28;20079;-59
2021/04/18 12:48:47;;;;;;;4.15;3.25;;;;;;;;;;4972577;28;20075;-58
2021/04/18 12:51:14;;;;;;;5.00;3.00;;;;;;;;;;5005615;28;20023;-61
2021/04/18 12:53:40;;;;;;;4.35;2.80;;;;;;;;;;5004509;28;20030;-59
2021/04/18 12:56:09;;;;;;;5.50;3.20;;;;;;;;;;4998011;28;20548;-60
2021/04/18 12:58:34;;;;;;;5.72;3.30;;;;;;;;;;4971274;28;20035;-58
2021/04/18 13:01:00;;;;;;;4.97;3.45;;;;;;;;;;4987244;28;20034;-59
2021/04/18 13:03:25;;;;;;;4.55;3.05;;;;;;;;;;4979857;28;20045;-60
2021/04/18 13:05:51;;;;;;;5.30;3.60;;;;;;;;;;4980071;28;20109;-60
2021/04/18 13:08:17;;;;;;;4.95;3.00;;;;;;;;;;4998876;28;20524;-59
2021/04/18 13:10:43;;;;;;;4.25;2.67;;;;;;;;;;4981414;28;20043;-61
2021/04/18 13:13:11;;;;;;;4.68;3.15;;;;;;;;;;5000145;28;20619;-60
2021/04/18 13:15:36;;;;;;;4.68;3.33;;;;;;;;;;4999956;28;20039;-60
2021/04/18 13:18:04;;;;;;;4.55;3.22;;;;;;;;;;4997720;28;20507;-60
2021/04/18 13:20:29;;;;;;;4.90;3.38;;;;;;;;;;4998131;28;20162;-60
2021/04/18 13:22:55;;;;;;;4.43;3.10;;;;;;;;;;4997818;28;20050;-61
2021/04/18 13:25:22;;;;;;;3.95;3.00;;;;;;;;;;5014066;28;20038;-59
2021/04/18 13:27:47;;;;;;;4.88;3.00;;;;;;;;;;4998496;28;20971;-60
2021/04/18 13:30:14;;;;;;;4.05;3.40;;;;;;;;;;4997638;28;20066;-59
2021/04/18 13:32:40;;;;;;;4.43;3.30;;;;;;;;;;4998720;28;20061;-61
2021/04/18 13:35:08;;;;;;;4.53;3.30;;;;;;;;;;5004073;28;20053;-61
2021/04/18 13:37:34;;;;;;;4.90;3.17;;;;;;;;;;4998785;28;20077;-61
2021/04/18 13:40:04;;;;;;;3.75;2.85;;;;;;;;;;4998795;28;20645;-61
2021/04/18 13:42:30;;;;;;;5.07;3.40;;;;;;;;;;5012888;28;20047;-60
2021/04/18 13:44:55;;;;;;;6.53;3.42;;;;;;;;;;4998069;28;20661;-59
2021/04/18 13:47:21;;;;;;;4.93;3.67;;;;;;;;;;4994647;28;20182;-61
2021/04/18 13:49:46;;;;;;;4.45;3.38;;;;;;;;;;4977192;28;20045;-60
2021/04/18 13:52:12;;;;;;;4.80;3.53;;;;;;;;;;4997083;28;20035;-61
2021/04/18 13:54:38;;;;;;;5.25;3.67;;;;;;;;;;4987441;28;20036;-61
2021/04/18 13:57:05;;;;;;;5.40;3.60;;;;;;;;;;4971481;28;20117;-60
2021/04/18 13:59:31;;;;;;;5.47;3.70;;;;;;;;;;4997978;28;20023;-60
2021/04/18 14:01:57;;;;;;;4.93;3.72;;;;;;;;;;4996819;28;20053;-60
2021/04/18 14:04:22;;;;;;;4.85;3.70;;;;;;;;;;4987590;28;20042;-59
2021/04/18 14:06:51;;;;;;;5.72;3.83;;;;;;;;;;5002540;28;20098;-60
2021/04/18 14:09:16;;;;;;;6.13;4.03;;;;;;;;;;4997698;28;20145;-59
2021/04/18 14:11:42;;;;;;;5.50;3.80;;;;;;;;;;4979035;28;20292;-61
2021/04/18 14:14:09;;;;;;;5.63;3.80;;;;;;;;;;5004845;28;20034;-60
2021/04/18 14:16:35;;;;;;;4.80;3.67;;;;;;;;;;4996027;28;20026;-59
2021/04/18 14:19:00;;;;;;;4.47;3.58;;;;;;;;;;4996950;28;20034;-61
2021/04/18 14:21:26;;;;;;;6.80;3.88;;;;;;;;;;5002564;28;20046;-61
2021/04/18 14:23:51;;;;;;;4.65;3.10;;;;;;;;;;4996153;28;20042;-61
2021/04/18 14:26:17;;;;;;;4.18;3.10;;;;;;;;;;4997205;28;20073;-61
2021/04/18 14:28:45;;;;;;;5.07;3.65;;;;;;;;;;4998421;28;20034;-59
2021/04/18 14:31:10;;;;;;;4.45;3.30;;;;;;;;;;4995974;28;20027;-61
2021/04/18 14:33:36;;;;;;;4.00;2.90;;;;;;;;;;4997005;28;20457;-61
2021/04/18 14:36:02;;;;;;;5.18;3.17;;;;;;;;;;4978810;28;20054;-60
2021/04/18 14:38:32;;;;;;;4.90;3.42;;;;;;;;;;4993692;28;20039;-61
2021/04/18 14:40:59;;;;;;;5.45;3.33;;;;;;;;;;4997995;28;20041;-60
2021/04/18 14:43:25;;;;;;;3.72;2.95;;;;;;;;;;4997961;28;20808;-62
2021/04/18 14:45:51;;;;;;;5.53;3.63;;;;;;;;;;4996991;28;20045;-61
2021/04/18 14:48:17;;;;;;;4.78;3.47;;;;;;;;;;4997913;28;20043;-59